Time;durP1;ratioP1;P1;durP2;ratioP2;P2;SDS_P1;SDS_P2;PMS_P1;PMS_P2;Temp;Humidity;BMP_temperature;BMP_pressure;BME280_temperature;BME280_humidity;BME280_pressure;Samples;Min_cycle;Max_cycle;Signal;HPM_P1;HPM_P2
2022/09/05 00:02:03;;;;;;;8.80;8.10;;;;;;;15.01;100.00;100051.19;4939384;29;20239;-93
2022/09/05 00:04:44;;;;;;;9.03;8.27;;;;;;;14.96;100.00;100055.44;4954316;28;20264;-92
2022/09/05 00:07:17;;;;;;;8.47;7.83;;;;;;;14.94;100.00;100051.31;4959838;28;20235;-92
2022/09/05 00:10:26;;;;;;;9.00;8.30;;;;;;;14.90;100.00;100044.75;4926138;29;20237;-91
2022/09/05 00:13:09;;;;;;;8.50;7.87;;;;;;;14.89;100.00;100043.94;4940190;28;20268;-91
2022/09/05 00:16:00;;;;;;;9.20;8.40;;;;;;;14.85;100.00;100045.47;4924335;28;20243;-91
2022/09/05 00:19:26;;;;;;;8.57;7.97;;;;;;;14.82;100.00;100051.34;4916420;28;20232;-91
2022/09/05 00:22:53;;;;;;;8.60;7.97;;;;;;;14.76;100.00;100052.28;4963073;28;20279;-91
2022/09/05 00:25:52;;;;;;;8.47;7.87;;;;;;;14.71;100.00;100057.56;4938413;28;20232;-91
2022/09/05 00:28:37;;;;;;;8.53;7.90;;;;;;;14.71;100.00;100051.34;4934232;29;20283;-91
2022/09/05 00:31:35;;;;;;;8.27;7.67;;;;;;;14.68;100.00;100049.16;4949332;28;20235;-90
2022/09/05 00:35:02;;;;;;;8.53;7.70;;;;;;;14.66;100.00;100062.84;4952948;28;20298;-88
2022/09/05 00:37:43;;;;;;;8.40;7.70;;;;;;;14.63;100.00;100057.94;4933288;28;20260;-89
2022/09/05 00:40:13;;;;;;;8.50;7.90;;;;;;;14.61;100.00;100057.34;4926016;28;20287;-90
2022/09/05 00:42:47;;;;;;;9.13;8.33;;;;;;;14.60;100.00;100058.44;4942304;28;20232;-90
2022/09/05 00:45:30;;;;;;;8.20;7.60;;;;;;;14.52;100.00;100061.44;4949090;29;20296;-90
2022/09/05 00:48:11;;;;;;;8.30;7.63;;;;;;;14.52;100.00;100061.44;4939605;28;20243;-90
2022/09/05 00:50:59;;;;;;;8.87;8.27;;;;;;;14.49;100.00;100057.38;4922894;29;20229;-90
2022/09/05 00:53:36;;;;;;;8.10;7.40;;;;;;;14.41;100.00;100059.59;4952598;28;20236;-92
2022/09/05 00:56:18;;;;;;;7.50;7.00;;;;;;;14.41;100.00;100059.59;4920591;28;20240;-91
2022/09/05 00:59:21;;;;;;;7.57;6.97;;;;;;;14.37;100.00;100055.72;4922421;28;20762;-92
2022/09/05 01:02:03;;;;;;;8.10;7.40;;;;;;;14.34;100.00;100056.97;4953027;28;20231;-94
2022/09/05 01:04:48;;;;;;;8.13;7.50;;;;;;;14.35;100.00;100068.56;4937606;29;20243;-94
2022/09/05 01:07:30;;;;;;;8.00;7.40;;;;;;;14.35;100.00;100065.88;4933441;29;20267;-93
2022/09/05 01:10:18;;;;;;;6.90;6.40;;;;;;;14.29;100.00;100059.53;4956930;28;20256;-93
2022/09/05 01:13:01;;;;;;;6.57;6.07;;;;;;;14.23;100.00;100056.97;4927598;29;20323;-93
2022/09/05 01:15:52;;;;;;;7.00;6.50;;;;;;;14.20;100.00;100060.94;4948846;28;20653;-93
2022/09/05 01:18:31;;;;;;;6.37;5.97;;;;;;;14.17;100.00;100057.91;4972588;28;20322;-91
2022/09/05 01:21:10;;;;;;;6.60;6.10;;;;;;;14.08;100.00;100049.34;4927817;28;20283;-91
2022/09/05 01:24:28;;;;;;;8.07;7.37;;;;;;;14.04;100.00;100053.56;4936821;29;20225;-91
2022/09/05 01:27:32;;;;;;;8.87;8.17;;;;;;;14.02;100.00;100040.31;4928772;28;20813;-91
2022/09/05 01:30:40;;;;;;;7.73;7.23;;;;;;;13.95;100.00;100042.25;4960373;28;20234;-91
2022/09/05 01:33:13;;;;;;;8.97;8.27;;;;;;;13.94;100.00;100045.22;4942636;28;20216;-91
2022/09/05 01:35:52;;;;;;;8.17;7.50;;;;;;;13.91;100.00;100054.56;4953289;29;20231;-92
2022/09/05 01:38:54;;;;;;;7.87;7.37;;;;;;;13.93;100.00;100051.66;4955849;28;20236;-92
2022/09/05 01:41:48;;;;;;;8.33;7.73;;;;;;;13.92;100.00;100055.38;4960205;28;20286;-93
2022/09/05 01:44:36;;;;;;;8.73;8.10;;;;;;;13.90;100.00;100058.31;4953457;28;20281;-92
2022/09/05 01:47:21;;;;;;;8.90;8.20;;;;;;;13.81;100.00;100059.69;4957068;28;20759;-93
2022/09/05 01:50:27;;;;;;;8.27;7.67;;;;;;;13.79;100.00;100058.28;4958536;28;20229;-92
2022/09/05 01:53:09;;;;;;;8.50;7.90;;;;;;;13.77;100.00;100058.50;4953760;28;20244;-93
2022/09/05 01:56:07;;;;;;;8.50;7.80;;;;;;;13.76;100.00;100062.28;4941807;29;20317;-93
2022/09/05 01:59:04;;;;;;;8.20;7.50;;;;;;;13.72;100.00;100061.06;4929885;28;20236;-92
2022/09/05 02:02:19;;;;;;;7.87;7.27;;;;;;;13.68;100.00;100057.19;4932610;29;20244;-92
2022/09/05 02:05:33;;;;;;;8.30;7.70;;;;;;;13.68;100.00;100058.00;4887511;29;20638;-92
2022/09/05 02:08:14;;;;;;;7.87;7.27;;;;;;;13.71;100.00;100061.31;4928873;28;20233;-91
2022/09/05 02:10:45;;;;;;;8.37;7.67;;;;;;;13.70;100.00;100068.56;4948985;28;20323;-92
2022/09/05 02:13:32;;;;;;;8.87;8.17;;;;;;;13.66;100.00;100070.91;4954675;28;20240;-91
2022/09/05 02:16:20;;;;;;;8.30;7.60;;;;;;;13.58;100.00;100065.00;4944005;29;20254;-91
2022/09/05 02:18:58;;;;;;;8.40;7.70;;;;;;;13.63;100.00;100076.72;4935147;28;20226;-91
2022/09/05 02:21:34;;;;;;;8.23;7.57;;;;;;;13.54;100.00;100071.88;4941660;28;20288;-94
2022/09/05 02:24:44;;;;;;;8.10;7.50;;;;;;;13.46;100.00;100067.66;4954622;28;20248;-93
2022/09/05 02:27:33;;;;;;;8.40;7.80;;;;;;;13.48;100.00;100072.81;4928178;29;20232;-94
2022/09/05 02:30:24;;;;;;;7.80;7.20;;;;;;;13.47;100.00;100076.53;4949556;29;20244;-92
2022/09/05 02:33:13;;;;;;;7.53;7.03;;;;;;;13.48;100.00;100070.94;4940317;29;20241;-92
2022/09/05 02:36:21;;;;;;;8.70;7.93;;;;;;;13.49;100.00;100060.97;4947181;29;20277;-93
2022/09/05 02:38:59;;;;;;;8.50;7.90;;;;;;;13.48;100.00;100067.44;4938561;28;20364;-92
2022/09/05 02:42:05;;;;;;;7.80;7.30;;;;;;;13.47;100.00;100073.84;4966622;28;20243;-92
2022/09/05 02:45:04;;;;;;;8.43;7.83;;;;;;;13.42;100.00;100068.34;4931132;29;20238;-92
2022/09/05 02:47:56;;;;;;;7.03;6.50;;;;;;;13.37;100.00;100070.88;4919967;29;20264;-92
2022/09/05 02:50:37;;;;;;;7.73;7.17;;;;;;;13.34;100.00;100077.56;4926348;29;20238;-92
2022/09/05 02:53:24;;;;;;;6.83;6.33;;;;;;;13.32;100.00;100078.81;4920655;29;20311;-93
2022/09/05 02:56:45;;;;;;;6.93;6.33;;;;;;;13.29;100.00;100074.72;4926154;29;20213;-93
2022/09/05 02:59:32;;;;;;;7.33;6.80;;;;;;;13.25;100.00;100072.69;4929763;29;20650;-93
2022/09/05 03:02:19;;;;;;;6.90;6.30;;;;;;;13.25;100.00;100075.41;4935903;29;20916;-94
2022/09/05 03:05:04;;;;;;;7.77;7.23;;;;;;;13.23;100.00;100072.91;4916009;29;20284;-93
2022/09/05 03:07:43;;;;;;;8.00;7.20;;;;;;;13.21;100.00;100067.75;4930886;29;20718;-95
2022/09/05 03:10:27;;;;;;;7.80;7.20;;;;;;;13.22;100.00;100074.78;4920119;29;20241;-94
2022/09/05 03:13:32;;;;;;;7.67;6.90;;;;;;;13.19;100.00;100069.88;4930179;29;20253;-94
2022/09/05 03:16:36;;;;;;;7.93;7.30;;;;;;;13.17;100.00;100082.72;4932108;29;20599;-92
2022/09/05 03:19:48;;;;;;;7.33;6.83;;;;;;;13.16;100.00;100075.69;4917170;29;20233;-92
2022/09/05 03:22:34;;;;;;;7.43;6.93;;;;;;;13.17;100.00;100077.31;4923787;29;20232;-91
2022/09/05 03:25:18;;;;;;;7.83;7.13;;;;;;;13.15;100.00;100071.38;4916475;29;20696;-91
2022/09/05 03:28:03;;;;;;;7.23;6.63;;;;;;;13.15;100.00;100074.06;4921864;29;20264;-92
2022/09/05 03:30:42;;;;;;;7.70;7.13;;;;;;;13.13;100.00;100062.69;4931065;29;20237;-91
2022/09/05 03:33:50;;;;;;;7.97;7.37;;;;;;;13.15;100.00;100068.69;4922982;29;20248;-90
2022/09/05 03:36:49;;;;;;;7.13;6.57;;;;;;;13.11;100.00;100061.28;4890989;29;20241;-91
2022/09/05 03:39:41;;;;;;;7.37;6.77;;;;;;;13.13;100.00;100069.94;4923794;29;20232;-91
2022/09/05 03:42:30;;;;;;;7.20;6.50;;;;;;;13.08;100.00;100075.97;4919893;29;20611;-91
2022/09/05 03:45:24;;;;;;;7.03;6.53;;;;;;;13.05;100.00;100081.81;4916182;28;1315441;-91
2022/09/05 03:48:34;;;;;;;6.80;6.30;;;;;;;13.03;100.00;100078.50;4949422;28;20322;-90
2022/09/05 03:51:30;;;;;;;6.87;6.37;;;;;;;12.98;100.00;100078.34;4935268;29;20306;-90
2022/09/05 03:54:47;;;;;;;7.50;6.90;;;;;;;12.99;100.00;100077.31;4927789;28;20247;-91
2022/09/05 03:57:43;;;;;;;7.00;6.33;;;;;;;12.97;100.00;100084.75;4916858;29;20325;-91
2022/09/05 04:00:24;;;;;;;6.80;6.30;;;;;;;12.95;100.00;100078.81;4959038;28;20330;-91
2022/09/05 04:03:08;;;;;;;6.60;6.10;;;;;;;12.92;100.00;100090.03;4947659;29;20246;-91
2022/09/05 04:06:27;;;;;;;7.00;6.40;;;;;;;12.90;100.00;100077.81;4949346;29;20239;-91
2022/09/05 04:09:24;;;;;;;6.70;6.20;;;;;;;12.92;100.00;100084.63;4920583;29;20229;-90
2022/09/05 04:12:28;;;;;;;6.93;6.43;;;;;;;12.91;100.00;100076.78;4928516;28;20279;-91
2022/09/05 04:15:17;;;;;;;6.03;5.63;;;;;;;12.88;100.00;100086.09;4931028;29;20239;-91
2022/09/05 04:17:47;;;;;;;6.43;5.83;;;;;;;12.83;100.00;100083.25;4922012;29;20694;-91
2022/09/05 04:20:46;;;;;;;6.70;6.23;;;;;;;12.85;100.00;100086.56;4914460;28;20245;-91
2022/09/05 04:23:44;;;;;;;6.60;6.10;;;;;;;12.83;100.00;100095.91;4912139;29;20231;-90
2022/09/05 04:26:29;;;;;;;6.40;6.00;;;;;;;12.85;100.00;100086.56;4941372;29;20244;-91
2022/09/05 04:29:23;;;;;;;6.40;5.90;;;;;;;12.86;100.00;100088.22;4943195;28;20243;-91
2022/09/05 04:32:08;;;;;;;6.63;6.03;;;;;;;12.89;100.00;100090.44;4944900;29;20715;-91
2022/09/05 04:35:06;;;;;;;6.70;6.20;;;;;;;12.93;100.00;100096.19;4934110;29;20230;-91
2022/09/05 04:37:54;;;;;;;6.50;5.90;;;;;;;12.96;100.00;100090.38;4951199;29;20254;-90
2022/09/05 04:40:46;;;;;;;6.20;5.80;;;;;;;13.00;100.00;100091.59;4922839;29;20263;-91
2022/09/05 04:43:27;;;;;;;6.47;5.97;;;;;;;13.02;100.00;100095.69;4925016;29;20236;-90
2022/09/05 04:46:00;;;;;;;6.63;6.03;;;;;;;13.06;100.00;100096.91;4914426;29;20236;-90
2022/09/05 04:48:34;;;;;;;6.30;5.80;;;;;;;13.20;100.00;100100.28;4919432;29;20246;-91
2022/09/05 04:51:09;;;;;;;6.80;6.20;;;;;;;13.29;100.00;100107.00;4903846;29;20611;-90
2022/09/05 04:54:29;;;;;;;6.17;5.77;;;;;;;13.38;100.00;100121.78;4905131;29;20241;-91
2022/09/05 04:57:22;;;;;;;6.47;5.97;;;;;;;13.56;100.00;100111.00;4911466;29;20247;-90
2022/09/05 05:00:02;;;;;;;6.47;5.90;;;;;;;13.58;100.00;100114.28;4917533;29;20233;-91
2022/09/05 05:02:55;;;;;;;6.13;5.73;;;;;;;13.67;100.00;100110.22;4924794;29;20243;-91
2022/09/05 05:05:45;;;;;;;7.13;6.60;;;;;;;13.80;100.00;100114.63;4903632;29;20256;-91
2022/09/05 05:08:33;;;;;;;6.13;5.63;;;;;;;13.90;100.00;100117.59;4913213;29;20232;-91
2022/09/05 05:11:15;;;;;;;6.80;6.23;;;;;;;13.98;100.00;100122.63;4915717;29;20240;-91
2022/09/05 05:15:10;;;;;;;6.53;6.03;;;;;;;14.14;100.00;100120.34;4926618;29;20247;-90
2022/09/05 05:18:02;;;;;;;6.40;5.87;;;;;;;14.33;100.00;100129.97;4828345;29;20240;-90
2022/09/05 05:20:55;;;;;;;6.97;6.27;;;;;;;14.51;100.00;100136.13;4827830;29;20247;-91
2022/09/05 05:23:50;;;;;;;6.87;6.37;;;;;;;14.68;100.00;100135.44;4899915;29;20320;-91
2022/09/05 05:26:40;;;;;;;6.33;5.83;;;;;;;14.86;100.00;100138.03;4915893;29;20222;-92
2022/09/05 05:29:10;;;;;;;5.73;5.33;;;;;;;15.01;100.00;100138.38;4919138;29;20269;-95
2022/09/05 05:31:39;;;;;;;6.10;5.70;;;;;;;15.15;100.00;100128.97;4908578;29;20304;-95
2022/09/05 05:34:28;;;;;;;5.93;5.23;;;;;;;15.30;100.00;100140.06;4904399;29;20242;-95
2022/09/05 05:37:01;;;;;;;6.20;5.70;;;;;;;15.44;100.00;100136.03;4917048;29;20267;-95
2022/09/05 05:39:29;;;;;;;6.40;5.90;;;;;;;15.59;100.00;100142.84;4947586;29;20316;-93
2022/09/05 05:41:57;;;;;;;6.57;5.97;;;;;;;15.73;100.00;100142.31;4906095;29;20244;-95
2022/09/05 05:44:33;;;;;;;6.57;5.97;;;;;;;15.90;100.00;100153.22;4898928;29;20257;-95
2022/09/05 05:47:06;;;;;;;6.03;5.53;;;;;;;15.99;100.00;100151.75;4924085;29;20324;-95
2022/09/05 05:49:58;;;;;;;6.43;5.97;;;;;;;16.05;100.00;100152.69;4926425;29;20265;-95
2022/09/05 05:52:52;;;;;;;6.27;5.77;;;;;;;16.17;100.00;100156.94;4903661;29;20222;-95
2022/09/05 05:55:43;;;;;;;6.50;5.90;;;;;;;16.35;100.00;100157.78;4925730;29;20253;-94
2022/09/05 05:59:05;;;;;;;6.13;5.63;;;;;;;16.53;100.00;100158.38;4930134;29;20290;-93
2022/09/05 06:01:35;;;;;;;6.03;5.53;;;;;;;16.69;100.00;100163.00;4916088;29;20237;-93
2022/09/05 06:04:40;;;;;;;5.90;5.50;;;;;;;16.84;100.00;100157.00;4931770;29;20276;-93
2022/09/05 06:07:31;;;;;;;5.83;5.33;;;;;;;17.01;100.00;100156.97;4913502;29;20269;-93
2022/09/05 06:10:59;;;;;;;5.63;5.13;;;;;;;17.17;100.00;100158.81;4934894;29;20234;-93
2022/09/05 06:13:56;;;;;;;7.13;5.73;;;;;;;17.36;100.00;100167.47;4939617;29;20312;-93
2022/09/05 06:16:56;;;;;;;6.57;5.97;;;;;;;17.48;100.00;100160.88;4934688;29;20226;-93
2022/09/05 06:19:56;;;;;;;6.97;6.07;;;;;;;17.54;100.00;100167.97;4925103;29;20233;-93
2022/09/05 06:23:05;;;;;;;6.70;6.00;;;;;;;17.63;100.00;100160.28;4910775;29;20238;-93
2022/09/05 06:26:13;;;;;;;7.60;6.57;;;;;;;17.73;100.00;100165.78;4929828;29;20264;-93
2022/09/05 06:29:18;;;;;;;6.90;6.40;;;;;;;17.87;100.00;100174.38;4918327;29;20240;-94
2022/09/05 06:32:05;;;;;;;6.57;5.97;;;;;;;18.00;100.00;100171.28;4931429;29;20233;-93
2022/09/05 06:34:55;;;;;;;7.03;6.40;;;;;;;18.18;100.00;100175.50;4921223;29;20282;-93
2022/09/05 06:37:29;;;;;;;7.03;6.47;;;;;;;18.24;100.00;100169.91;4922454;29;20229;-93
2022/09/05 06:40:15;;;;;;;7.57;6.60;;;;;;;18.26;100.00;100161.47;4918453;29;20694;-95
2022/09/05 06:43:01;;;;;;;9.13;6.97;;;;;;;18.33;100.00;100172.97;4902571;29;20757;-94
2022/09/05 06:45:51;;;;;;;7.60;7.00;;;;;;;18.40;100.00;100165.41;4925283;29;20229;-94
2022/09/05 06:48:43;;;;;;;8.10;7.47;;;;;;;18.59;100.00;100153.13;4923447;29;20673;-96
2022/09/05 06:51:55;;;;;;;8.27;7.50;;;;;;;18.67;100.00;100162.69;4924003;29;20236;-94
2022/09/05 06:55:01;;;;;;;8.23;7.50;;;;;;;18.79;100.00;100157.91;4906594;29;20330;-96
2022/09/05 06:57:48;;;;;;;8.10;7.50;;;;;;;18.89;100.00;100161.50;4918113;29;20298;-93
2022/09/05 07:00:22;;;;;;;8.03;7.40;;;;;;;19.01;100.00;100165.91;4910286;29;20225;-93
2022/09/05 07:03:02;;;;;;;8.30;7.70;;;;;;;19.08;100.00;100161.09;4918856;29;20239;-92
2022/09/05 07:05:43;;;;;;;8.40;7.70;;;;;;;19.22;100.00;100154.91;4934625;29;20232;-92
2022/09/05 07:08:52;;;;;;;8.93;8.10;;;;;;;19.30;100.00;100164.47;4917958;29;20243;-92
2022/09/05 07:11:25;;;;;;;9.47;7.83;;;;;;;19.42;100.00;100165.06;4933509;29;20286;-92
2022/09/05 07:14:15;;;;;;;11.90;8.53;;;;;;;19.55;100.00;100167.31;4920728;29;20327;-92
2022/09/05 07:16:49;;;;;;;8.83;8.03;;;;;;;19.65;100.00;100175.50;4921018;29;20240;-92
2022/09/05 07:19:24;;;;;;;9.77;8.37;;;;;;;19.83;100.00;100176.16;4914842;29;20231;-93
2022/09/05 07:22:03;;;;;;;9.60;8.90;;;;;;;19.94;100.00;100167.72;4936642;29;20247;-93
2022/09/05 07:24:33;;;;;;;9.00;8.17;;;;;;;20.02;100.00;100172.66;4936860;29;20322;-92
2022/09/05 07:27:46;;;;;;;8.87;8.17;;;;;;;20.14;100.00;100175.13;4897993;29;20227;-90
2022/09/05 07:30:34;;;;;;;9.17;8.27;;;;;;;20.04;100.00;100172.38;4903022;29;20236;-92
2022/09/05 07:33:02;;;;;;;9.83;9.03;;;;;;;20.30;100.00;100182.25;4907367;29;20272;-91
2022/09/05 07:35:44;;;;;;;9.20;8.20;;;;;;;20.46;100.00;100170.31;4891793;29;20244;-93
2022/09/05 07:38:21;;;;;;;9.83;9.00;;;;;;;20.44;100.00;100175.19;4916899;28;20247;-93
2022/09/05 07:41:14;;;;;;;9.73;8.37;;;;;;;20.53;100.00;100178.22;4926738;29;20248;-94
2022/09/05 07:43:45;;;;;;;9.30;8.30;;;;;;;20.55;100.00;100170.56;4917915;29;20749;-93
2022/09/05 07:46:15;;;;;;;7.80;7.20;;;;;;;20.56;100.00;100181.22;4919529;29;20239;-92
2022/09/05 07:48:59;;;;;;;9.27;8.33;;;;;;;20.80;100.00;100175.22;4929760;29;20327;-92
2022/09/05 07:51:28;;;;;;;10.07;7.97;;;;;;;20.96;100.00;100174.09;4925117;29;20235;-91
2022/09/05 07:54:19;;;;;;;9.40;8.07;;;;;;;21.04;100.00;100170.81;4943039;29;20269;-91
2022/09/05 07:57:08;;;;;;;7.83;7.13;;;;;;;21.18;100.00;100174.66;4903937;29;20242;-91
2022/09/05 08:00:03;;;;;;;10.77;7.57;;;;;;;21.27;100.00;100175.72;4935783;29;20238;-91
2022/09/05 08:02:44;;;;;;;7.43;6.83;;;;;;;21.17;100.00;100173.00;4915073;29;20241;-91
2022/09/05 08:05:19;;;;;;;8.73;7.70;;;;;;;21.35;100.00;100177.88;4922270;29;20241;-91
2022/09/05 08:08:04;;;;;;;8.50;7.80;;;;;;;21.43;99.19;100171.00;4905556;29;20279;-90
2022/09/05 08:10:41;;;;;;;9.27;7.83;;;;;;;21.28;100.00;100171.88;4909935;29;20321;-92
2022/09/05 08:13:51;;;;;;;7.43;6.83;;;;;;;21.56;99.30;100164.97;4915343;29;20729;-95
2022/09/05 08:16:25;;;;;;;7.87;7.27;;;;;;;21.73;97.53;100168.19;4922813;29;20693;-92
2022/09/05 08:19:17;;;;;;;7.37;6.70;;;;;;;21.81;96.52;100159.41;4919586;29;20283;-93
2022/09/05 08:21:47;;;;;;;7.73;7.00;;;;;;;21.86;93.48;100162.09;4925528;29;20246;-92
2022/09/05 08:24:24;;;;;;;6.83;6.33;;;;;;;21.99;91.05;100162.59;4930811;29;20313;-94
2022/09/05 08:27:23;;;;;;;7.43;6.70;;;;;;;22.07;89.56;100168.28;4909846;29;20233;-94
2022/09/05 08:29:56;;;;;;;6.40;5.90;;;;;;;22.10;90.30;100153.28;4932533;29;20228;-94
2022/09/05 08:33:02;;;;;;;7.10;6.50;;;;;;;22.24;88.43;100160.56;4919220;29;20229;-93
2022/09/05 08:35:42;;;;;;;6.38;5.88;;;;;;;22.43;87.73;100146.22;4931157;29;20238;-93
2022/09/05 08:38:12;;;;;;;6.20;5.57;;;;;;;22.40;85.87;100153.88;4923844;29;20253;-93
2022/09/05 08:41:23;;;;;;;8.57;5.75;;;;;;;22.62;83.50;100155.34;4900623;29;20297;-93
2022/09/05 08:44:30;;;;;;;6.05;5.55;;;;;;;22.73;82.15;100149.53;4890033;29;20242;-93
2022/09/05 08:47:45;;;;;;;6.75;6.20;;;;;;;22.81;82.28;100153.56;4897550;29;20415;-93
2022/09/05 08:50:23;;;;;;;5.97;5.53;;;;;;;23.02;78.44;100146.78;4888935;29;20289;-93
2022/09/05 08:53:12;;;;;;;5.97;5.47;;;;;;;23.19;75.53;100147.16;4910323;29;20232;-93
2022/09/05 08:56:21;;;;;;;5.90;5.43;;;;;;;23.16;76.52;100144.19;4930006;29;20300;-93
2022/09/05 08:58:51;;;;;;;6.32;5.68;;;;;;;23.27;75.51;100142.97;4912014;29;20238;-92
2022/09/05 09:02:02;;;;;;;5.53;5.07;;;;;;;23.30;75.23;100131.44;4925267;29;20243;-93
2022/09/05 09:05:06;;;;;;;6.63;4.60;;;;;;;23.45;75.64;100131.31;4927178;29;20261;-93
2022/09/05 09:07:59;;;;;;;5.47;4.70;;;;;;;23.51;72.89;100129.34;4916055;29;20734;-93
2022/09/05 09:10:33;;;;;;;5.20;4.80;;;;;;;23.59;70.29;100125.94;4892883;29;20300;-93
2022/09/05 09:13:11;;;;;;;6.90;5.03;;;;;;;23.88;69.23;100117.63;4894562;29;20685;-93
2022/09/05 09:16:03;;;;;;;5.18;4.68;;;;;;;23.95;71.25;100123.53;4919398;29;20289;-92
2022/09/05 09:19:17;;;;;;;5.50;5.03;;;;;;;24.29;68.98;100120.56;4927361;29;20309;-92
2022/09/05 09:22:18;;;;;;;5.05;4.60;;;;;;;24.44;66.37;100118.41;4927679;29;20238;-92
2022/09/05 09:24:57;;;;;;;5.75;4.35;;;;;;;24.40;67.48;100111.88;4919065;29;20234;-93
2022/09/05 09:27:54;;;;;;;5.53;3.47;;;;;;;24.87;63.89;100101.81;4927861;29;20263;-92
2022/09/05 09:30:50;;;;;;;4.28;3.88;;;;;;;24.89;61.97;100105.03;4943220;29;20241;-92
2022/09/05 09:33:32;;;;;;;4.78;4.30;;;;;;;25.02;60.98;100100.69;4904452;29;20248;-92
2022/09/05 09:36:08;;;;;;;5.57;4.20;;;;;;;24.96;61.88;100100.78;4903852;29;20226;-92
2022/09/05 09:38:46;;;;;;;4.57;4.20;;;;;;;25.07;61.67;100106.06;4871920;29;20250;-92
2022/09/05 09:41:28;;;;;;;3.35;3.15;;;;;;;25.11;58.13;100094.19;4932500;29;20240;-92
2022/09/05 09:44:13;;;;;;;3.90;3.00;;;;;;;25.30;56.04;100099.56;4927666;29;20726;-92
2022/09/05 09:46:42;;;;;;;3.42;3.15;;;;;;;25.23;54.99;100100.00;4938273;29;20239;-92
2022/09/05 09:49:12;;;;;;;3.78;3.40;;;;;;;25.09;55.99;100101.91;4927867;29;20236;-91
2022/09/05 09:52:04;;;;;;;3.30;3.00;;;;;;;25.32;55.49;100100.91;4920669;28;20227;-92
2022/09/05 09:55:09;;;;;;;3.05;2.85;;;;;;;25.35;57.08;100091.25;4937945;29;20228;-92
2022/09/05 09:57:56;;;;;;;2.90;2.70;;;;;;;25.50;55.70;100090.09;4898812;29;20335;-92
2022/09/05 10:00:23;;;;;;;3.30;3.10;;;;;;;25.63;54.40;100087.38;4929576;29;20239;-93
2022/09/05 10:03:21;;;;;;;3.03;2.83;;;;;;;25.55;54.98;100084.56;4922072;29;20258;-93
2022/09/05 10:06:37;;;;;;;3.00;2.78;;;;;;;25.95;53.53;100085.56;4935273;29;20303;-92
2022/09/05 10:09:38;;;;;;;3.10;2.63;;;;;;;26.24;52.98;100088.72;4898937;29;20247;-91
2022/09/05 10:12:49;;;;;;;3.00;2.70;;;;;;;26.35;51.44;100090.13;4916475;29;20297;-91
2022/09/05 10:15:45;;;;;;;3.22;2.92;;;;;;;26.40;51.56;100076.25;4924515;29;20243;-92
2022/09/05 10:18:35;;;;;;;3.30;2.70;;;;;;;26.60;50.65;100075.72;4937182;29;20237;-92
2022/09/05 10:21:23;;;;;;;3.65;2.97;;;;;;;26.58;49.99;100074.41;4930637;29;20229;-92
2022/09/05 10:24:09;;;;;;;3.63;2.60;;;;;;;26.67;50.27;100072.53;4925976;29;20241;-91
2022/09/05 10:27:18;;;;;;;4.03;2.90;;;;;;;26.66;50.60;100068.16;4930385;29;20252;-92
2022/09/05 10:30:05;;;;;;;2.95;2.75;;;;;;;26.49;51.03;100059.81;4922040;29;20771;-92
2022/09/05 10:32:41;;;;;;;2.90;2.70;;;;;;;26.65;50.97;100059.09;4937145;29;20244;-92
2022/09/05 10:35:43;;;;;;;4.20;2.60;;;;;;;26.79;49.70;100061.75;4927025;29;20233;-92
2022/09/05 10:38:20;;;;;;;2.90;2.70;;;;;;;26.65;49.07;100056.34;4918468;29;20229;-92
2022/09/05 10:40:49;;;;;;;3.00;2.80;;;;;;;26.71;48.92;100051.53;4937202;29;20237;-91
2022/09/05 10:43:49;;;;;;;3.00;2.80;;;;;;;26.70;49.48;100053.47;4891070;29;20242;-91
2022/09/05 10:46:33;;;;;;;3.00;2.80;;;;;;;26.85;49.13;100040.44;4906639;29;20695;-91
2022/09/05 10:49:22;;;;;;;3.40;3.10;;;;;;;26.79;49.69;100031.50;4931258;29;20234;-91
2022/09/05 10:52:13;;;;;;;2.95;2.75;;;;;;;26.85;49.34;100030.25;4921937;29;20698;-90
2022/09/05 10:55:17;;;;;;;2.97;2.75;;;;;;;26.84;49.35;100022.31;4918045;29;20321;-92
2022/09/05 10:58:04;;;;;;;3.30;3.05;;;;;;;26.99;49.44;100022.72;4928192;29;20267;-90
2022/09/05 11:00:50;;;;;;;3.03;2.83;;;;;;;26.91;49.55;100023.50;4926768;29;20916;-92
2022/09/05 11:04:18;;;;;;;3.83;3.15;;;;;;;26.74;49.76;100020.66;4922014;29;20237;-92
2022/09/05 11:06:45;;;;;;;3.65;3.30;;;;;;;26.53;50.32;100019.59;4916233;29;20252;-90
2022/09/05 11:10:02;;;;;;;3.30;3.00;;;;;;;26.75;50.66;100011.28;4928069;29;20238;-90
2022/09/05 11:12:46;;;;;;;4.25;3.28;;;;;;;26.76;49.97;100012.91;4871930;29;20230;-90
2022/09/05 11:15:28;;;;;;;3.50;3.20;;;;;;;26.70;50.69;100003.16;4879352;29;20316;-92
2022/09/05 11:18:43;;;;;;;3.67;3.38;;;;;;;26.95;50.50;100007.19;4918359;29;20260;-90
2022/09/05 11:21:53;;;;;;;3.40;2.97;;;;;;;27.21;50.62;100010.81;4913496;29;20292;-92
2022/09/05 11:24:45;;;;;;;3.25;2.92;;;;;;;27.46;49.85;99993.53;4915319;29;20238;-91
2022/09/05 11:27:42;;;;;;;4.07;3.30;;;;;;;27.64;48.03;99996.31;4909958;29;20234;-92
2022/09/05 11:30:16;;;;;;;3.33;3.03;;;;;;;27.99;47.44;100000.69;4929645;29;20761;-91
2022/09/05 11:33:02;;;;;;;3.22;2.92;;;;;;;28.25;46.69;99997.91;4916530;29;20238;-91
2022/09/05 11:36:02;;;;;;;2.92;2.72;;;;;;;28.37;46.36;99989.75;4922005;29;20230;-92
2022/09/05 11:38:59;;;;;;;3.00;2.78;;;;;;;28.27;46.95;99992.88;4896567;29;20245;-92
2022/09/05 11:41:55;;;;;;;3.15;2.95;;;;;;;27.79;47.07;99987.56;4934930;29;20217;-91
2022/09/05 11:44:33;;;;;;;3.00;2.80;;;;;;;27.96;47.54;99982.84;4925896;29;20234;-92
2022/09/05 11:47:09;;;;;;;2.83;2.63;;;;;;;28.04;47.09;99979.25;4917356;29;20241;-92
2022/09/05 11:50:04;;;;;;;2.90;2.70;;;;;;;28.31;45.92;99991.88;4937992;29;20332;-91
2022/09/05 11:52:50;;;;;;;3.50;2.58;;;;;;;28.59;45.73;99983.19;4936207;29;20692;-92
2022/09/05 11:55:23;;;;;;;5.03;3.00;;;;;;;28.79;44.57;99979.72;4916736;29;20245;-91
2022/09/05 11:58:27;;;;;;;2.92;2.72;;;;;;;29.05;43.80;99979.59;4930781;29;20229;-92
2022/09/05 12:01:24;;;;;;;3.28;2.70;;;;;;;29.08;43.67;99981.66;4921211;29;20256;-90
2022/09/05 12:04:26;;;;;;;2.88;2.67;;;;;;;29.26;43.30;99988.69;4906309;29;20265;-92
2022/09/05 12:07:30;;;;;;;3.13;2.80;;;;;;;29.15;43.57;99976.44;4915975;29;20639;-92
2022/09/05 12:10:06;;;;;;;3.22;3.00;;;;;;;28.66;43.90;99972.47;4934875;29;20324;-91
2022/09/05 12:12:51;;;;;;;3.53;2.70;;;;;;;28.22;44.51;99960.00;4931906;29;20237;-92
2022/09/05 12:15:23;;;;;;;3.75;2.80;;;;;;;28.02;45.91;99964.22;4914723;29;20712;-91
2022/09/05 12:18:06;;;;;;;2.50;2.40;;;;;;;28.12;45.74;99960.34;4919515;29;20237;-93
2022/09/05 12:20:52;;;;;;;3.88;2.78;;;;;;;28.32;45.13;99960.41;4913172;29;20264;-92
2022/09/05 12:23:37;;;;;;;2.88;2.67;;;;;;;28.84;44.11;99960.22;4929815;29;20230;-91
2022/09/05 12:26:36;;;;;;;3.58;2.90;;;;;;;28.98;43.64;99960.78;4947212;28;20229;-91
2022/09/05 12:29:24;;;;;;;3.20;2.90;;;;;;;29.16;43.54;99958.75;4920871;29;20321;-92
2022/09/05 12:32:06;;;;;;;2.90;2.70;;;;;;;29.14;42.82;99956.31;4935339;29;20350;-92
2022/09/05 12:34:56;;;;;;;3.20;3.00;;;;;;;28.58;43.70;99940.22;4910436;29;20214;-92
2022/09/05 12:38:01;;;;;;;2.90;2.70;;;;;;;28.72;44.55;99944.41;4918915;29;20264;-92
2022/09/05 12:41:04;;;;;;;2.83;2.63;;;;;;;29.19;43.15;99939.56;4931648;29;20285;-93
2022/09/05 12:44:12;;;;;;;2.83;2.63;;;;;;;29.31;42.35;99934.16;4943229;28;20755;-91
2022/09/05 12:47:04;;;;;;;2.90;2.70;;;;;;;29.24;42.98;99927.53;4942672;28;20237;-92
2022/09/05 12:49:59;;;;;;;2.97;2.63;;;;;;;29.01;44.31;99929.81;4942446;28;20248;-92
2022/09/05 12:52:45;;;;;;;2.90;2.70;;;;;;;29.03;43.35;99923.94;4947646;28;20328;-92
2022/09/05 12:55:15;;;;;;;3.17;2.97;;;;;;;28.79;43.77;99924.56;4935363;29;20238;-91
2022/09/05 12:57:43;;;;;;;3.03;2.67;;;;;;;28.96;43.06;99920.91;4947358;29;20292;-92
2022/09/05 13:00:42;;;;;;;3.20;3.00;;;;;;;29.46;42.60;99927.22;4930931;29;20225;-92
2022/09/05 13:03:29;;;;;;;2.92;2.72;;;;;;;29.63;42.77;99910.47;4950217;29;20288;-92
2022/09/05 13:06:07;;;;;;;3.10;2.80;;;;;;;29.61;42.66;99914.75;4933338;29;20229;-91
2022/09/05 13:08:50;;;;;;;2.72;2.53;;;;;;;29.79;42.15;99907.09;4953805;28;20254;-91